sensor_id;sensor_type;location;lat;lon;timestamp;pressure;altitude;pressure_sealevel;temperature;humidity
35848;BME280;22332;51.954;20.118;2023-04-04T00:01:24;101119.89;;;-0.17;62.58
35848;BME280;22332;51.954;20.118;2023-04-04T00:04:30;101116.40;;;-0.17;62.72
35848;BME280;22332;51.954;20.118;2023-04-04T00:07:35;101114.60;;;-0.16;63.13
35848;BME280;22332;51.954;20.118;2023-04-04T00:10:41;101115.84;;;-0.12;62.68
35848;BME280;22332;51.954;20.118;2023-04-04T00:13:46;101116.69;;;-0.07;62.55
35848;BME280;22332;51.954;20.118;2023-04-04T00:16:52;101114.22;;;-0.02;62.60
35848;BME280;22332;51.954;20.118;2023-04-04T00:19:57;101109.52;;;-0.03;62.75
35848;BME280;22332;51.954;20.118;2023-04-04T00:23:03;101102.91;;;-0.04;62.42
35848;BME280;22332;51.954;20.118;2023-04-04T00:26:08;101094.85;;;-0.07;62.65
35848;BME280;22332;51.954;20.118;2023-04-04T00:29:15;101090.30;;;-0.12;62.68
35848;BME280;22332;51.954;20.118;2023-04-04T00:32:20;101083.20;;;-0.13;62.13
35848;BME280;22332;51.954;20.118;2023-04-04T00:35:26;101083.83;;;-0.16;62.35
35848;BME280;22332;51.954;20.118;2023-04-04T00:38:32;101082.72;;;-0.23;62.45
35848;BME280;22332;51.954;20.118;2023-04-04T00:41:39;101082.53;;;-0.27;62.27
35848;BME280;22332;51.954;20.118;2023-04-04T00:44:45;101077.51;;;-0.28;62.26
35848;BME280;22332;51.954;20.118;2023-04-04T00:47:50;101079.34;;;-0.34;62.71
35848;BME280;22332;51.954;20.118;2023-04-04T00:50:56;101073.17;;;-0.42;63.19
35848;BME280;22332;51.954;20.118;2023-04-04T00:54:02;101070.38;;;-0.50;63.66
35848;BME280;22332;51.954;20.118;2023-04-04T00:57:09;101068.85;;;-0.55;63.25
35848;BME280;22332;51.954;20.118;2023-04-04T01:00:16;101071.88;;;-0.62;63.29
35848;BME280;22332;51.954;20.118;2023-04-04T01:03:21;101069.61;;;-0.66;63.48
35848;BME280;22332;51.954;20.118;2023-04-04T01:06:28;101066.26;;;-0.74;63.99
35848;BME280;22332;51.954;20.118;2023-04-04T01:09:36;101057.82;;;-0.81;63.75
35848;BME280;22332;51.954;20.118;2023-04-04T01:12:42;101053.27;;;-0.90;64.03
35848;BME280;22332;51.954;20.118;2023-04-04T01:15:48;101047.63;;;-0.97;63.98
35848;BME280;22332;51.954;20.118;2023-04-04T01:18:55;101045.17;;;-1.07;64.42
35848;BME280;22332;51.954;20.118;2023-04-04T01:22:01;101043.37;;;-1.19;65.93
35848;BME280;22332;51.954;20.118;2023-04-04T01:25:08;101044.77;;;-1.28;65.82
35848;BME280;22332;51.954;20.118;2023-04-04T01:28:15;101046.54;;;-1.29;65.24
35848;BME280;22332;51.954;20.118;2023-04-04T01:31:25;101045.39;;;-1.26;64.68
35848;BME280;22332;51.954;20.118;2023-04-04T01:34:38;101041.13;;;-1.24;64.97
35848;BME280;22332;51.954;20.118;2023-04-04T01:37:51;101039.95;;;-1.25;64.53
35848;BME280;22332;51.954;20.118;2023-04-04T01:41:02;101043.10;;;-1.26;64.51
35848;BME280;22332;51.954;20.118;2023-04-04T01:44:11;101047.34;;;-1.27;64.68
35848;BME280;22332;51.954;20.118;2023-04-04T01:47:21;101044.56;;;-1.32;64.91
35848;BME280;22332;51.954;20.118;2023-04-04T01:50:26;101042.31;;;-1.37;64.57
35848;BME280;22332;51.954;20.118;2023-04-04T01:53:32;101041.52;;;-1.44;65.71
35848;BME280;22332;51.954;20.118;2023-04-04T01:56:37;101041.10;;;-1.51;64.84
35848;BME280;22332;51.954;20.118;2023-04-04T01:59:43;101042.20;;;-1.57;66.02
35848;BME280;22332;51.954;20.118;2023-04-04T02:02:49;101040.52;;;-1.64;65.47
35848;BME280;22332;51.954;20.118;2023-04-04T02:05:54;101040.87;;;-1.69;65.53
35848;BME280;22332;51.954;20.118;2023-04-04T02:09:00;101042.84;;;-1.75;65.86
35848;BME280;22332;51.954;20.118;2023-04-04T02:12:08;101042.86;;;-1.81;66.36
35848;BME280;22332;51.954;20.118;2023-04-04T02:15:13;101043.98;;;-1.88;67.35
35848;BME280;22332;51.954;20.118;2023-04-04T02:18:20;101037.15;;;-1.91;66.55
35848;BME280;22332;51.954;20.118;2023-04-04T02:21:26;101038.41;;;-1.93;67.74
35848;BME280;22332;51.954;20.118;2023-04-04T02:24:31;101036.56;;;-1.90;66.78
35848;BME280;22332;51.954;20.118;2023-04-04T02:27:37;101035.02;;;-1.86;66.62
35848;BME280;22332;51.954;20.118;2023-04-04T02:30:42;101034.44;;;-1.79;66.35
35848;BME280;22332;51.954;20.118;2023-04-04T02:33:49;101033.75;;;-1.74;66.43
35848;BME280;22332;51.954;20.118;2023-04-04T02:36:56;101032.23;;;-1.76;65.95
35848;BME280;22332;51.954;20.118;2023-04-04T02:40:02;101036.39;;;-1.80;66.44
35848;BME280;22332;51.954;20.118;2023-04-04T02:43:11;101038.20;;;-1.82;65.66
35848;BME280;22332;51.954;20.118;2023-04-04T02:46:18;101041.48;;;-1.82;65.67
35848;BME280;22332;51.954;20.118;2023-04-04T02:49:24;101040.88;;;-1.79;65.42
35848;BME280;22332;51.954;20.118;2023-04-04T02:52:30;101044.37;;;-1.79;65.48
35848;BME280;22332;51.954;20.118;2023-04-04T02:55:40;101045.84;;;-1.81;65.59
35848;BME280;22332;51.954;20.118;2023-04-04T02:58:46;101047.91;;;-1.85;65.62
35848;BME280;22332;51.954;20.118;2023-04-04T03:01:51;101048.40;;;-1.89;65.89
35848;BME280;22332;51.954;20.118;2023-04-04T03:04:57;101049.83;;;-1.96;66.18
35848;BME280;22332;51.954;20.118;2023-04-04T03:08:02;101052.84;;;-2.02;67.10
35848;BME280;22332;51.954;20.118;2023-04-04T03:11:08;101047.54;;;-2.10;66.80
35848;BME280;22332;51.954;20.118;2023-04-04T03:14:14;101047.21;;;-2.16;67.33
35848;BME280;22332;51.954;20.118;2023-04-04T03:17:20;101048.83;;;-2.22;67.74
35848;BME280;22332;51.954;20.118;2023-04-04T03:20:26;101049.13;;;-2.26;67.46
35848;BME280;22332;51.954;20.118;2023-04-04T03:23:32;101053.63;;;-2.25;67.51
35848;BME280;22332;51.954;20.118;2023-04-04T03:26:37;101048.40;;;-2.20;67.18
35848;BME280;22332;51.954;20.118;2023-04-04T03:29:43;101050.35;;;-2.15;67.40
35848;BME280;22332;51.954;20.118;2023-04-04T03:32:50;101047.70;;;-2.09;66.50
35848;BME280;22332;51.954;20.118;2023-04-04T03:35:56;101049.06;;;-2.04;66.50
35848;BME280;22332;51.954;20.118;2023-04-04T03:39:02;101049.67;;;-2.01;66.48
35848;BME280;22332;51.954;20.118;2023-04-04T03:42:07;101046.52;;;-2.01;66.45
35848;BME280;22332;51.954;20.118;2023-04-04T03:45:13;101039.88;;;-2.00;66.65
35848;BME280;22332;51.954;20.118;2023-04-04T03:48:19;101037.86;;;-2.02;67.57
35848;BME280;22332;51.954;20.118;2023-04-04T03:51:25;101034.70;;;-2.07;67.42
35848;BME280;22332;51.954;20.118;2023-04-04T03:54:32;101029.98;;;-2.06;68.23
35848;BME280;22332;51.954;20.118;2023-04-04T03:57:38;101031.72;;;-2.06;67.72
35848;BME280;22332;51.954;20.118;2023-04-04T04:00:46;101032.56;;;-2.05;68.09
35848;BME280;22332;51.954;20.118;2023-04-04T04:03:52;101030.67;;;-2.01;67.45
35848;BME280;22332;51.954;20.118;2023-04-04T04:06:58;101029.70;;;-1.98;67.15
35848;BME280;22332;51.954;20.118;2023-04-04T04:10:05;101030.41;;;-1.99;68.12
35848;BME280;22332;51.954;20.118;2023-04-04T04:13:10;101033.27;;;-2.01;67.12
35848;BME280;22332;51.954;20.118;2023-04-04T04:16:16;101037.60;;;-2.00;67.49
35848;BME280;22332;51.954;20.118;2023-04-04T04:19:22;101037.78;;;-1.95;67.17
35848;BME280;22332;51.954;20.118;2023-04-04T04:22:28;101041.66;;;-1.86;67.07
35848;BME280;22332;51.954;20.118;2023-04-04T04:25:33;101042.88;;;-1.76;66.70
35848;BME280;22332;51.954;20.118;2023-04-04T04:28:48;101042.83;;;-1.65;67.03
35848;BME280;22332;51.954;20.118;2023-04-04T04:31:58;101038.17;;;-1.58;66.72
35848;BME280;22332;51.954;20.118;2023-04-04T04:35:08;101037.05;;;-1.55;67.13
35848;BME280;22332;51.954;20.118;2023-04-04T04:38:14;101032.75;;;-1.57;67.13
35848;BME280;22332;51.954;20.118;2023-04-04T04:41:20;101030.74;;;-1.54;67.10
35848;BME280;22332;51.954;20.118;2023-04-04T04:44:28;101031.79;;;-1.50;66.94
35848;BME280;22332;51.954;20.118;2023-04-04T04:47:34;101030.72;;;-1.44;67.12
35848;BME280;22332;51.954;20.118;2023-04-04T04:50:43;101030.34;;;-1.35;66.85
35848;BME280;22332;51.954;20.118;2023-04-04T04:53:50;101029.37;;;-1.23;66.88
35848;BME280;22332;51.954;20.118;2023-04-04T04:57:00;101028.23;;;-1.11;66.90
35848;BME280;22332;51.954;20.118;2023-04-04T05:00:30;101029.79;;;-1.01;66.96
35848;BME280;22332;51.954;20.118;2023-04-04T05:03:42;101021.48;;;-0.95;66.92
35848;BME280;22332;51.954;20.118;2023-04-04T05:06:50;101028.80;;;-0.72;66.94
35848;BME280;22332;51.954;20.118;2023-04-04T05:09:55;101032.69;;;-0.65;67.29
35848;BME280;22332;51.954;20.118;2023-04-04T05:13:01;101029.02;;;-0.65;67.37
35848;BME280;22332;51.954;20.118;2023-04-04T05:16:09;101027.46;;;-0.69;67.53
35848;BME280;22332;51.954;20.118;2023-04-04T05:19:16;101024.98;;;-0.73;67.60
35848;BME280;22332;51.954;20.118;2023-04-04T05:22:24;101028.56;;;-0.66;67.43
35848;BME280;22332;51.954;20.118;2023-04-04T05:25:32;101028.78;;;-0.54;67.54
35848;BME280;22332;51.954;20.118;2023-04-04T05:28:38;101023.95;;;-0.35;67.22
35848;BME280;22332;51.954;20.118;2023-04-04T05:31:44;101022.88;;;-0.18;67.03
35848;BME280;22332;51.954;20.118;2023-04-04T05:34:54;101020.80;;;-0.06;67.20
35848;BME280;22332;51.954;20.118;2023-04-04T05:38:00;101017.43;;;0.11;66.92
35848;BME280;22332;51.954;20.118;2023-04-04T05:41:06;101017.80;;;0.23;66.57
35848;BME280;22332;51.954;20.118;2023-04-04T05:44:13;101024.30;;;0.22;66.61
35848;BME280;22332;51.954;20.118;2023-04-04T05:47:20;101023.82;;;0.21;66.78
35848;BME280;22332;51.954;20.118;2023-04-04T05:50:26;101031.74;;;0.16;66.75
35848;BME280;22332;51.954;20.118;2023-04-04T05:53:36;101029.13;;;0.08;66.70
35848;BME280;22332;51.954;20.118;2023-04-04T05:56:42;101034.60;;;0.07;66.89
35848;BME280;22332;51.954;20.118;2023-04-04T05:59:53;101036.52;;;0.03;66.74
35848;BME280;22332;51.954;20.118;2023-04-04T06:02:59;101033.56;;;0.02;66.62
35848;BME280;22332;51.954;20.118;2023-04-04T06:06:07;101036.76;;;0.06;66.52
35848;BME280;22332;51.954;20.118;2023-04-04T06:09:13;101038.08;;;0.03;66.93
35848;BME280;22332;51.954;20.118;2023-04-04T06:12:18;101036.23;;;0.01;66.77
35848;BME280;22332;51.954;20.118;2023-04-04T06:15:24;101031.52;;;0.17;66.89
35848;BME280;22332;51.954;20.118;2023-04-04T06:18:30;101029.92;;;0.33;66.49
35848;BME280;22332;51.954;20.118;2023-04-04T06:21:36;101028.30;;;0.42;66.22
35848;BME280;22332;51.954;20.118;2023-04-04T06:24:43;101023.77;;;0.58;66.50
35848;BME280;22332;51.954;20.118;2023-04-04T06:27:49;101026.61;;;0.76;66.22
35848;BME280;22332;51.954;20.118;2023-04-04T06:30:55;101022.55;;;0.84;65.83
35848;BME280;22332;51.954;20.118;2023-04-04T06:34:06;101021.42;;;0.89;65.62
35848;BME280;22332;51.954;20.118;2023-04-04T06:37:21;101018.41;;;0.97;65.83
35848;BME280;22332;51.954;20.118;2023-04-04T06:40:33;101021.88;;;0.98;65.50
35848;BME280;22332;51.954;20.118;2023-04-04T06:43:40;101018.28;;;0.92;65.36
35848;BME280;22332;51.954;20.118;2023-04-04T06:46:45;101018.48;;;0.96;65.55
35848;BME280;22332;51.954;20.118;2023-04-04T06:49:51;101018.16;;;0.99;65.28
35848;BME280;22332;51.954;20.118;2023-04-04T06:52:57;101016.48;;;0.97;65.31
35848;BME280;22332;51.954;20.118;2023-04-04T06:56:03;101017.61;;;1.00;65.42
35848;BME280;22332;51.954;20.118;2023-04-04T06:59:08;101019.66;;;1.01;65.44
35848;BME280;22332;51.954;20.118;2023-04-04T07:02:15;101020.48;;;0.98;65.03
35848;BME280;22332;51.954;20.118;2023-04-04T07:05:21;101019.80;;;1.01;65.22
35848;BME280;22332;51.954;20.118;2023-04-04T07:08:26;101011.83;;;1.14;65.26
35848;BME280;22332;51.954;20.118;2023-04-04T07:11:33;101008.34;;;1.28;65.23
35848;BME280;22332;51.954;20.118;2023-04-04T07:14:39;101008.86;;;1.29;64.51
35848;BME280;22332;51.954;20.118;2023-04-04T07:17:45;101007.23;;;1.23;64.83
35848;BME280;22332;51.954;20.118;2023-04-04T07:20:51;101004.21;;;1.20;64.65
35848;BME280;22332;51.954;20.118;2023-04-04T07:23:56;101008.71;;;1.10;64.74
35848;BME280;22332;51.954;20.118;2023-04-04T07:27:03;101005.55;;;0.99;65.09
35848;BME280;22332;51.954;20.118;2023-04-04T07:30:10;101009.16;;;1.00;65.11
35848;BME280;22332;51.954;20.118;2023-04-04T07:33:16;101001.34;;;0.99;64.99
35848;BME280;22332;51.954;20.118;2023-04-04T07:36:21;101000.41;;;1.08;65.41
35848;BME280;22332;51.954;20.118;2023-04-04T07:39:27;100993.45;;;1.21;64.92
35848;BME280;22332;51.954;20.118;2023-04-04T07:42:32;100989.16;;;1.61;65.38
35848;BME280;22332;51.954;20.118;2023-04-04T07:45:38;100988.92;;;2.07;64.42
35848;BME280;22332;51.954;20.118;2023-04-04T07:48:43;100983.56;;;2.26;63.63
35848;BME280;22332;51.954;20.118;2023-04-04T07:51:49;100985.39;;;2.18;62.63
35848;BME280;22332;51.954;20.118;2023-04-04T07:54:54;100981.80;;;2.12;62.45
35848;BME280;22332;51.954;20.118;2023-04-04T07:57:59;100984.70;;;2.01;61.03
35848;BME280;22332;51.954;20.118;2023-04-04T08:01:05;100984.20;;;1.97;62.71
35848;BME280;22332;51.954;20.118;2023-04-04T08:04:11;100978.83;;;2.13;62.99
35848;BME280;22332;51.954;20.118;2023-04-04T08:07:16;100977.05;;;2.20;61.89
35848;BME280;22332;51.954;20.118;2023-04-04T08:10:22;100973.20;;;2.16;62.08
35848;BME280;22332;51.954;20.118;2023-04-04T08:13:27;100971.98;;;2.19;61.86
35848;BME280;22332;51.954;20.118;2023-04-04T08:16:33;100972.19;;;2.08;60.87
35848;BME280;22332;51.954;20.118;2023-04-04T08:19:38;100971.30;;;1.95;61.77
35848;BME280;22332;51.954;20.118;2023-04-04T08:22:44;100970.20;;;1.86;61.94
35848;BME280;22332;51.954;20.118;2023-04-04T08:25:49;100971.38;;;1.90;62.58
35848;BME280;22332;51.954;20.118;2023-04-04T08:28:55;100965.94;;;2.07;62.64
35848;BME280;22332;51.954;20.118;2023-04-04T08:32:00;100964.23;;;2.23;62.40
35848;BME280;22332;51.954;20.118;2023-04-04T08:35:07;100962.59;;;2.37;61.95
35848;BME280;22332;51.954;20.118;2023-04-04T08:38:13;100957.83;;;2.54;61.12
35848;BME280;22332;51.954;20.118;2023-04-04T08:41:19;100958.17;;;2.50;59.97
35848;BME280;22332;51.954;20.118;2023-04-04T08:44:26;100959.33;;;2.49;60.74
35848;BME280;22332;51.954;20.118;2023-04-04T08:47:33;100954.79;;;2.42;60.26
35848;BME280;22332;51.954;20.118;2023-04-04T08:50:40;100953.01;;;2.39;60.58
35848;BME280;22332;51.954;20.118;2023-04-04T08:53:46;100954.70;;;2.40;59.46
35848;BME280;22332;51.954;20.118;2023-04-04T08:56:52;100949.21;;;2.41;60.25
35848;BME280;22332;51.954;20.118;2023-04-04T08:59:58;100947.84;;;2.50;61.01
35848;BME280;22332;51.954;20.118;2023-04-04T09:03:12;100949.81;;;2.62;60.26
35848;BME280;22332;51.954;20.118;2023-04-04T09:06:19;100948.65;;;2.61;59.01
35848;BME280;22332;51.954;20.118;2023-04-04T09:09:25;100946.86;;;2.65;59.54
35848;BME280;22332;51.954;20.118;2023-04-04T09:12:33;100947.50;;;2.75;59.41
35848;BME280;22332;51.954;20.118;2023-04-04T09:15:41;100949.61;;;2.79;58.33
35848;BME280;22332;51.954;20.118;2023-04-04T09:18:47;100953.66;;;2.72;57.86
35848;BME280;22332;51.954;20.118;2023-04-04T09:21:53;100952.81;;;2.59;56.78
35848;BME280;22332;51.954;20.118;2023-04-04T09:25:01;100954.48;;;2.54;57.26
35848;BME280;22332;51.954;20.118;2023-04-04T09:28:06;100954.54;;;2.56;56.47
35848;BME280;22332;51.954;20.118;2023-04-04T09:31:12;100949.93;;;2.60;58.03
35848;BME280;22332;51.954;20.118;2023-04-04T09:34:19;100951.77;;;2.68;58.80
35848;BME280;22332;51.954;20.118;2023-04-04T09:37:24;100947.58;;;2.80;58.20
35848;BME280;22332;51.954;20.118;2023-04-04T09:40:30;100954.89;;;2.85;57.70
35848;BME280;22332;51.954;20.118;2023-04-04T09:43:36;100954.39;;;2.71;58.06
35848;BME280;22332;51.954;20.118;2023-04-04T09:46:43;100959.91;;;2.61;57.84
35848;BME280;22332;51.954;20.118;2023-04-04T09:49:49;100960.77;;;2.41;57.18
35848;BME280;22332;51.954;20.118;2023-04-04T09:52:56;100959.90;;;2.32;57.97
35848;BME280;22332;51.954;20.118;2023-04-04T09:56:04;100963.25;;;2.25;57.39
35848;BME280;22332;51.954;20.118;2023-04-04T09:59:10;100963.48;;;2.27;56.88
35848;BME280;22332;51.954;20.118;2023-04-04T10:02:16;100957.75;;;2.32;56.80
35848;BME280;22332;51.954;20.118;2023-04-04T10:05:23;100950.44;;;2.45;56.58
35848;BME280;22332;51.954;20.118;2023-04-04T10:08:31;100959.48;;;2.55;56.36
35848;BME280;22332;51.954;20.118;2023-04-04T10:11:37;100956.05;;;2.64;56.04
35848;BME280;22332;51.954;20.118;2023-04-04T10:14:43;100958.25;;;2.68;55.02
35848;BME280;22332;51.954;20.118;2023-04-04T10:17:53;100953.62;;;2.76;54.19
35848;BME280;22332;51.954;20.118;2023-04-04T10:21:01;100953.32;;;2.82;54.34
35848;BME280;22332;51.954;20.118;2023-04-04T10:24:07;100955.75;;;2.75;52.41
35848;BME280;22332;51.954;20.118;2023-04-04T10:27:13;100950.31;;;2.72;53.65
35848;BME280;22332;51.954;20.118;2023-04-04T10:30:19;100951.38;;;2.81;54.14
35848;BME280;22332;51.954;20.118;2023-04-04T10:33:29;100956.85;;;2.94;54.01
35848;BME280;22332;51.954;20.118;2023-04-04T10:36:42;100954.11;;;3.02;52.34
35848;BME280;22332;51.954;20.118;2023-04-04T10:39:52;100952.20;;;3.13;53.41
35848;BME280;22332;51.954;20.118;2023-04-04T10:43:03;100949.36;;;3.35;53.57
35848;BME280;22332;51.954;20.118;2023-04-04T10:46:12;100949.80;;;3.52;52.22
35848;BME280;22332;51.954;20.118;2023-04-04T10:49:20;100945.60;;;3.69;51.22
35848;BME280;22332;51.954;20.118;2023-04-04T10:52:28;100946.50;;;3.78;50.50
35848;BME280;22332;51.954;20.118;2023-04-04T10:55:35;100947.08;;;3.68;48.73
35848;BME280;22332;51.954;20.118;2023-04-04T10:58:44;100940.99;;;3.64;50.43
35848;BME280;22332;51.954;20.118;2023-04-04T11:01:55;100946.05;;;3.62;49.39
35848;BME280;22332;51.954;20.118;2023-04-04T11:05:11;100943.17;;;3.51;49.45
35848;BME280;22332;51.954;20.118;2023-04-04T11:08:21;100944.39;;;3.42;50.72
35848;BME280;22332;51.954;20.118;2023-04-04T11:11:28;100943.77;;;3.49;50.80
35848;BME280;22332;51.954;20.118;2023-04-04T11:14:36;100942.17;;;3.47;49.98
35848;BME280;22332;51.954;20.118;2023-04-04T11:18:05;100943.77;;;3.35;50.05
35848;BME280;22332;51.954;20.118;2023-04-04T11:21:14;100938.40;;;3.22;50.96
35848;BME280;22332;51.954;20.118;2023-04-04T11:24:21;100937.89;;;3.18;50.64
35848;BME280;22332;51.954;20.118;2023-04-04T11:27:29;100936.86;;;3.11;50.02
35848;BME280;22332;51.954;20.118;2023-04-04T11:30:38;100936.70;;;3.11;50.53
35848;BME280;22332;51.954;20.118;2023-04-04T11:33:57;100936.08;;;3.19;51.01
35848;BME280;22332;51.954;20.118;2023-04-04T11:37:16;100931.73;;;3.24;50.54
35848;BME280;22332;51.954;20.118;2023-04-04T11:40:34;100930.13;;;3.36;50.22
35848;BME280;22332;51.954;20.118;2023-04-04T11:43:46;100925.69;;;3.52;50.12
35848;BME280;22332;51.954;20.118;2023-04-04T11:46:59;100917.29;;;3.60;48.89
35848;BME280;22332;51.954;20.118;2023-04-04T11:50:12;100910.79;;;3.63;49.44
35848;BME280;22332;51.954;20.118;2023-04-04T11:53:19;100913.02;;;3.67;47.94
35848;BME280;22332;51.954;20.118;2023-04-04T11:56:25;100917.66;;;3.66;47.50
35848;BME280;22332;51.954;20.118;2023-04-04T11:59:30;100913.73;;;3.49;47.25
35848;BME280;22332;51.954;20.118;2023-04-04T12:02:36;100910.66;;;3.39;48.84
35848;BME280;22332;51.954;20.118;2023-04-04T12:05:44;100913.52;;;3.35;48.75
35848;BME280;22332;51.954;20.118;2023-04-04T12:08:50;100911.08;;;3.40;49.89
35848;BME280;22332;51.954;20.118;2023-04-04T12:11:56;100913.04;;;3.46;48.38
35848;BME280;22332;51.954;20.118;2023-04-04T12:15:03;100914.90;;;3.44;48.02
35848;BME280;22332;51.954;20.118;2023-04-04T12:18:08;100913.86;;;3.44;48.28
35848;BME280;22332;51.954;20.118;2023-04-04T12:21:14;100909.73;;;3.45;48.82
35848;BME280;22332;51.954;20.118;2023-04-04T12:24:21;100912.89;;;3.51;48.91
35848;BME280;22332;51.954;20.118;2023-04-04T12:27:27;100906.23;;;3.57;49.12
35848;BME280;22332;51.954;20.118;2023-04-04T12:30:33;100906.58;;;3.57;47.74
35848;BME280;22332;51.954;20.118;2023-04-04T12:33:40;100905.33;;;3.57;48.83
35848;BME280;22332;51.954;20.118;2023-04-04T12:36:49;100902.23;;;3.56;47.35
35848;BME280;22332;51.954;20.118;2023-04-04T12:39:56;100900.45;;;3.44;48.31
35848;BME280;22332;51.954;20.118;2023-04-04T12:43:02;100900.34;;;3.31;48.38
35848;BME280;22332;51.954;20.118;2023-04-04T12:46:08;100901.54;;;3.20;49.41
35848;BME280;22332;51.954;20.118;2023-04-04T12:49:14;100899.69;;;3.12;49.22
35848;BME280;22332;51.954;20.118;2023-04-04T12:52:21;100904.21;;;2.98;48.79
35848;BME280;22332;51.954;20.118;2023-04-04T12:55:31;100900.89;;;2.86;48.84
35848;BME280;22332;51.954;20.118;2023-04-04T12:58:37;100901.10;;;2.82;49.17
35848;BME280;22332;51.954;20.118;2023-04-04T13:01:42;100902.80;;;2.73;48.41
35848;BME280;22332;51.954;20.118;2023-04-04T13:04:53;100899.33;;;2.76;49.17
35848;BME280;22332;51.954;20.118;2023-04-04T13:08:07;100898.17;;;2.84;49.66
35848;BME280;22332;51.954;20.118;2023-04-04T13:11:14;100894.25;;;2.94;48.73
35848;BME280;22332;51.954;20.118;2023-04-04T13:14:20;100892.48;;;2.94;48.09
35848;BME280;22332;51.954;20.118;2023-04-04T13:17:26;100886.59;;;3.02;48.67
35848;BME280;22332;51.954;20.118;2023-04-04T13:20:43;100889.16;;;3.19;48.62
35848;BME280;22332;51.954;20.118;2023-04-04T13:23:48;100885.94;;;3.28;48.78
35848;BME280;22332;51.954;20.118;2023-04-04T13:26:54;100886.45;;;3.38;49.12
35848;BME280;22332;51.954;20.118;2023-04-04T13:30:00;100885.64;;;3.42;48.77
35848;BME280;22332;51.954;20.118;2023-04-04T13:33:05;100882.83;;;3.39;48.76
35848;BME280;22332;51.954;20.118;2023-04-04T13:36:12;100883.47;;;3.40;48.88
35848;BME280;22332;51.954;20.118;2023-04-04T13:39:18;100873.10;;;3.43;49.32
35848;BME280;22332;51.954;20.118;2023-04-04T13:42:24;100877.48;;;3.37;48.70
35848;BME280;22332;51.954;20.118;2023-04-04T13:45:34;100883.36;;;3.33;49.57
35848;BME280;22332;51.954;20.118;2023-04-04T13:48:40;100880.88;;;3.31;49.67
35848;BME280;22332;51.954;20.118;2023-04-04T13:51:47;100882.38;;;3.32;49.18
35848;BME280;22332;51.954;20.118;2023-04-04T13:54:52;100885.61;;;3.25;48.82
35848;BME280;22332;51.954;20.118;2023-04-04T13:57:58;100884.52;;;3.16;49.39
35848;BME280;22332;51.954;20.118;2023-04-04T14:01:04;100888.36;;;3.14;49.18
35848;BME280;22332;51.954;20.118;2023-04-04T14:04:10;100887.13;;;3.08;49.13
35848;BME280;22332;51.954;20.118;2023-04-04T14:07:15;100885.58;;;3.04;49.25
35848;BME280;22332;51.954;20.118;2023-04-04T14:10:21;100882.48;;;2.94;49.76
35848;BME280;22332;51.954;20.118;2023-04-04T14:13:26;100881.14;;;2.90;49.88
35848;BME280;22332;51.954;20.118;2023-04-04T14:16:33;100881.80;;;2.90;49.56
35848;BME280;22332;51.954;20.118;2023-04-04T14:19:42;100877.63;;;2.93;49.75
35848;BME280;22332;51.954;20.118;2023-04-04T14:22:48;100880.77;;;2.84;49.57
35848;BME280;22332;51.954;20.118;2023-04-04T14:25:53;100875.92;;;2.77;49.59
35848;BME280;22332;51.954;20.118;2023-04-04T14:28:59;100876.66;;;2.79;49.95
35848;BME280;22332;51.954;20.118;2023-04-04T14:32:05;100874.77;;;2.88;50.40
35848;BME280;22332;51.954;20.118;2023-04-04T14:35:10;100876.42;;;2.95;49.95
35848;BME280;22332;51.954;20.118;2023-04-04T14:38:16;100880.41;;;2.93;50.08
35848;BME280;22332;51.954;20.118;2023-04-04T14:41:22;100881.48;;;2.87;49.32
35848;BME280;22332;51.954;20.118;2023-04-04T14:44:27;100881.02;;;2.77;50.12
35848;BME280;22332;51.954;20.118;2023-04-04T14:47:33;100884.30;;;2.78;50.17
35848;BME280;22332;51.954;20.118;2023-04-04T14:50:39;100880.65;;;2.71;49.84
35848;BME280;22332;51.954;20.118;2023-04-04T14:53:46;100876.42;;;2.65;50.12
35848;BME280;22332;51.954;20.118;2023-04-04T14:56:52;100878.66;;;2.68;50.52
35848;BME280;22332;51.954;20.118;2023-04-04T14:59:57;100875.77;;;2.70;50.68
35848;BME280;22332;51.954;20.118;2023-04-04T15:03:03;100874.00;;;2.73;50.65
35848;BME280;22332;51.954;20.118;2023-04-04T15:06:09;100872.42;;;2.80;50.85
35848;BME280;22332;51.954;20.118;2023-04-04T15:09:15;100870.29;;;2.80;50.42
35848;BME280;22332;51.954;20.118;2023-04-04T15:12:21;100873.64;;;2.76;50.64
35848;BME280;22332;51.954;20.118;2023-04-04T15:15:26;100872.24;;;2.73;50.85
35848;BME280;22332;51.954;20.118;2023-04-04T15:18:33;100873.30;;;2.73;50.65
35848;BME280;22332;51.954;20.118;2023-04-04T15:21:41;100867.41;;;2.69;50.61
35848;BME280;22332;51.954;20.118;2023-04-04T15:24:46;100864.49;;;2.61;50.72
35848;BME280;22332;51.954;20.118;2023-04-04T15:27:52;100861.21;;;2.58;50.27
35848;BME280;22332;51.954;20.118;2023-04-04T15:31:00;100858.66;;;2.50;50.11
35848;BME280;22332;51.954;20.118;2023-04-04T15:34:06;100861.39;;;2.51;50.58
35848;BME280;22332;51.954;20.118;2023-04-04T15:37:12;100861.67;;;2.52;50.23
35848;BME280;22332;51.954;20.118;2023-04-04T15:40:19;100860.19;;;2.53;50.05
35848;BME280;22332;51.954;20.118;2023-04-04T15:43:25;100863.89;;;2.60;49.63
35848;BME280;22332;51.954;20.118;2023-04-04T15:46:30;100861.30;;;2.59;48.94
35848;BME280;22332;51.954;20.118;2023-04-04T15:49:36;100857.20;;;2.57;48.88
35848;BME280;22332;51.954;20.118;2023-04-04T15:52:41;100857.63;;;2.55;48.54
35848;BME280;22332;51.954;20.118;2023-04-04T15:55:46;100859.36;;;2.56;48.52
35848;BME280;22332;51.954;20.118;2023-04-04T15:58:52;100864.61;;;2.59;48.50
35848;BME280;22332;51.954;20.118;2023-04-04T16:02:04;100868.73;;;2.58;48.32
35848;BME280;22332;51.954;20.118;2023-04-04T16:05:11;100864.99;;;2.56;48.03
35848;BME280;22332;51.954;20.118;2023-04-04T16:08:16;100861.13;;;2.49;47.32
35848;BME280;22332;51.954;20.118;2023-04-04T16:11:22;100860.71;;;2.44;47.55